Time;durP1;ratioP1;P1;durP2;ratioP2;P2;SDS_P1;SDS_P2;PMS_P1;PMS_P2;Temp;Humidity;BMP_temperature;BMP_pressure;BME280_temperature;BME280_humidity;BME280_pressure;Samples;Min_cycle;Max_cycle;Signal;HPM_P1;HPM_P2
2023/10/29 00:01:32;;;;;;;2.37;2.00;;;;;;;;;;6297202;28;20200;-64
2023/10/29 00:04:35;;;;;;;2.17;1.80;;;;;;;;;;6298433;28;20244;-65
2023/10/29 00:07:36;;;;;;;4.73;2.83;;;;;;;;;;6301118;28;20193;-65
2023/10/29 00:10:37;;;;;;;3.43;1.87;;;;;;;;;;6288321;28;20196;-65
2023/10/29 00:13:39;;;;;;;2.50;2.10;;;;;;;;;;6302248;28;20180;-64
2023/10/29 00:16:40;;;;;;;3.83;2.30;;;;;;;;;;6300756;28;20218;-65
2023/10/29 00:19:41;;;;;;;2.57;2.27;;;;;;;;;;6301167;28;20195;-65
2023/10/29 00:22:42;;;;;;;2.83;2.13;;;;;;;;;;6295216;28;20185;-65
2023/10/29 00:25:42;;;;;;;2.13;1.93;;;24.00;50.00;;;;;;6296862;28;20193;-65
2023/10/29 00:28:44;;;;;;;3.80;2.07;;;;;;;;;;6282925;28;20203;-65
2023/10/29 00:31:45;;;;;;;3.50;2.00;;;;;;;;;;6302208;28;20217;-64
2023/10/29 00:34:46;;;;;;;4.17;2.40;;;;;;;;;;6321242;28;20236;-65
2023/10/29 00:37:47;;;;;;;2.77;2.10;;;;;;;;;;6325624;28;20254;-65
2023/10/29 00:40:48;;;;;;;3.47;2.10;;;;;;;;;;6304038;28;20199;-64
2023/10/29 00:43:51;;;;;;;1.87;1.73;;;;;;;;;;6308081;28;20270;-65
2023/10/29 00:46:52;;;;;;;4.00;2.33;;;;;;;;;;6297347;28;20220;-64
2023/10/29 00:49:53;;;;;;;3.63;2.10;;;;;;;;;;6296874;28;20199;-64
2023/10/29 00:52:54;;;;;;;2.13;1.93;;;;;;;;;;6308325;28;20201;-64
2023/10/29 00:55:55;;;;;;;3.47;2.30;;;;;;;;;;6300539;28;20193;-64
2023/10/29 00:58:56;;;;;;;4.17;2.40;;;;;;;;;;6317509;28;20203;-65
2023/10/29 01:01:57;;;;;;;3.70;2.20;;;;;;;;;;6297411;28;20200;-64
2023/10/29 01:04:59;;;;;;;7.03;2.70;;;;;;;;;;6299556;28;20219;-65
2023/10/29 01:08:00;;;;;;;2.30;2.10;;;;;;;;;;6303068;28;20188;-64
2023/10/29 01:11:02;;;;;;;4.77;2.40;;;;;;;;;;6320868;28;20176;-65
2023/10/29 01:14:03;;;;;;;3.93;1.90;;;;;;;;;;6299446;28;20197;-65
2023/10/29 01:17:04;;;;;;;4.67;2.50;;;;;;;;;;6293282;28;20208;-64
2023/10/29 01:20:06;;;;;;;3.47;2.27;;;;;;;;;;6307188;28;20188;-65
2023/10/29 01:23:07;;;;;;;5.23;2.47;;;;;;;;;;6302747;28;20230;-65
2023/10/29 01:26:08;;;;;;;3.27;2.50;;;;;;;;;;6324612;28;20184;-65
2023/10/29 01:29:09;;;;;;;2.83;2.07;;;;;;;;;;6313554;28;20211;-64
2023/10/29 01:32:10;;;;;;;3.30;1.90;;;;;;;;;;6286297;28;20287;-65
2023/10/29 01:35:11;;;;;;;5.17;2.20;;;;;;;;;;6297127;28;20281;-64
2023/10/29 01:38:12;;;;;;;3.37;2.40;;;;;;;;;;6296072;28;20234;-65
2023/10/29 01:41:13;;;;;;;5.00;2.43;;;;;;;;;;6299635;28;20249;-65
2023/10/29 01:44:14;;;;;;;3.20;2.47;;;;;;;;;;6301788;28;20203;-65
2023/10/29 01:47:16;;;;;;;3.33;2.70;;;;;;;;;;6321992;28;20218;-65
2023/10/29 01:50:17;;;;;;;3.93;2.20;;;;;;;;;;6298873;28;20204;-65
2023/10/29 01:53:19;;;;;;;2.43;2.03;;;;;;;;;;6299983;28;20307;-65
2023/10/29 01:56:20;;;;;;;2.60;2.40;;;;;;;;;;6301829;28;20269;-65
2023/10/29 01:59:21;;;;;;;5.67;2.70;;;;;;;;;;6296488;28;20184;-65
2023/10/29 02:02:22;;;;;;;3.63;3.20;;;;;;;;;;6322503;28;20180;-65
2023/10/29 02:05:23;;;;;;;3.53;3.20;;;;;;;;;;6303490;28;20197;-65
2023/10/29 02:08:24;;;;;;;5.27;2.47;;;;;;;;;;6300790;28;20187;-65
2023/10/29 02:11:26;;;;;;;5.47;2.80;;;;;;;;;;6296440;28;20188;-65
2023/10/29 02:14:28;;;;;;;4.63;2.53;;;;;;;;;;6294575;28;20248;-65
2023/10/29 02:17:29;;;;;;;3.30;2.67;;;;;;;;;;6303797;28;20303;-65
2023/10/29 02:20:30;;;;;;;4.17;2.50;;;;;;;;;;6300426;28;20191;-65
2023/10/29 02:23:31;;;;;;;3.77;2.67;;;;;;;;;;6301542;28;20279;-64
2023/10/29 02:26:33;;;;;;;4.07;3.30;;;;;;;;;;6290133;28;20184;-65
2023/10/29 02:29:34;;;;;;;6.60;3.07;;;;;;;;;;6312223;28;20184;-65
2023/10/29 02:32:35;;;;;;;4.33;3.40;;;;;;;;;;6296253;28;20350;-65
2023/10/29 02:35:36;;;;;;;5.90;3.43;;;;;;;;;;6296170;28;20299;-65
2023/10/29 02:38:37;;;;;;;2.90;2.70;;;;;;;;;;6293683;28;20220;-65
2023/10/29 02:41:38;;;;;;;3.50;2.70;;;;;;;;;;6294226;28;20189;-65
2023/10/29 02:44:39;;;;;;;5.67;2.90;;;;;;;;;;6305920;28;20199;-65
2023/10/29 02:47:40;;;;;;;4.17;2.80;;;;;;;;;;6298509;28;20245;-64
2023/10/29 02:50:41;;;;;;;4.47;3.07;;;;;;;;;;6298089;28;20193;-65
2023/10/29 02:53:43;;;;;;;5.23;3.10;;;;;;;;;;6293070;28;20204;-65
2023/10/29 02:56:44;;;;;;;5.57;2.73;;;;;;;;;;6316427;28;20208;-65
2023/10/29 02:59:45;;;;;;;3.33;3.00;;;;;;;;;;6298982;28;20196;-64
2023/10/29 03:02:46;;;;;;;3.57;2.60;;;;;;;;;;6307961;28;20250;-65
2023/10/29 03:05:47;;;;;;;3.43;2.90;;;;;;;;;;6320580;28;20190;-65
2023/10/29 03:08:48;;;;;;;3.70;2.80;;;;;;;;;;6295017;28;20203;-65
2023/10/29 03:11:49;;;;;;;2.40;2.20;;;;;;;;;;6296586;28;20196;-65
2023/10/29 03:14:50;;;;;;;3.87;2.23;;;;;;;;;;6301856;28;20191;-65
2023/10/29 03:17:51;;;;;;;2.47;2.20;;;;;;;;;;6295139;28;20228;-65
2023/10/29 03:20:52;;;;;;;3.80;2.47;;;;;;;;;;6297354;28;20185;-65
2023/10/29 03:23:53;;;;;;;3.17;2.30;;;;;;;;;;6304019;28;20196;-65
2023/10/29 03:26:55;;;;;;;5.47;2.37;;;;;;;;;;6303675;28;20195;-65
2023/10/29 03:29:56;;;;;;;2.83;2.53;;;;;;;;;;6293981;28;20203;-65
2023/10/29 03:32:57;;;;;;;2.60;2.40;;;;;;;;;;6290328;28;20192;-65
2023/10/29 03:35:58;;;;;;;2.73;2.37;;;;;;;;;;6311271;28;20236;-65
2023/10/29 03:38:59;;;;;;;5.83;2.83;;;;;;;;;;6297667;28;20220;-65
2023/10/29 03:42:00;;;;;;;2.60;2.40;;;;;;;;;;6304014;28;20192;-65
2023/10/29 03:45:03;;;;;;;4.90;3.20;;;;;;;;;;6296310;28;20185;-65
2023/10/29 03:48:04;;;;;;;4.47;2.90;;;;;;;;;;6298138;28;20197;-64
2023/10/29 03:51:05;;;;;;;3.20;2.60;;;;;;;;;;6315678;28;20209;-65
2023/10/29 03:54:06;;;;;;;4.37;3.00;;;;;;;;;;6299261;28;20192;-64
2023/10/29 03:57:10;;;;;;;3.10;2.77;;;;;;;;;;6303182;28;20227;-65
2023/10/29 04:00:11;;;;;;;4.97;3.10;;;;;;;;;;6280005;28;20207;-65
2023/10/29 04:03:12;;;;;;;3.33;2.73;;;;;;;;;;6318344;28;20188;-65
2023/10/29 04:06:13;;;;;;;4.37;3.43;;;;;;;;;;6282870;28;20218;-64
2023/10/29 04:09:14;;;;;;;4.50;2.67;;;;;;;;;;6305220;28;20181;-65
2023/10/29 04:12:16;;;;;;;5.33;3.13;;;;;;;;;;6288261;28;20191;-65
2023/10/29 04:15:17;;;;;;;2.90;2.60;;;;;;;;;;6303110;28;20224;-64
2023/10/29 04:18:19;;;;;;;2.77;2.53;;;;;;;;;;6297060;28;20218;-65
2023/10/29 04:21:20;;;;;;;3.10;2.67;;;;;;;;;;6291610;28;20238;-65
2023/10/29 04:24:21;;;;;;;4.17;3.20;;;;;;;;;;6316360;28;20180;-64
2023/10/29 04:27:22;;;;;;;4.17;3.00;;;;;;;;;;6314639;28;20189;-65
2023/10/29 04:30:23;;;;;;;4.07;2.03;;;;;;;;;;6293447;28;20193;-65
2023/10/29 04:33:24;;;;;;;3.07;2.50;;;;;;;;;;6287695;28;20214;-65
2023/10/29 04:36:26;;;;;;;2.87;2.60;;;;;;;;;;6293620;28;20268;-65
2023/10/29 04:39:27;;;;;;;3.97;2.60;;;;;;;;;;6311886;28;20196;-64
2023/10/29 04:42:28;;;;;;;2.57;2.37;;;;;;;;;;6300031;28;20207;-65
2023/10/29 04:45:29;;;;;;;3.40;2.53;;;;;;;;;;6291765;28;20212;-65
2023/10/29 04:48:30;;;;;;;3.37;2.43;;;;;;;;;;6299417;28;20200;-65
2023/10/29 04:51:31;;;;;;;4.43;2.53;;;;;;;;;;6284603;28;20185;-65
2023/10/29 04:54:32;;;;;;;4.43;2.53;;;;;;;;;;6312643;28;20283;-64
2023/10/29 04:57:33;;;;;;;4.57;3.00;;;;;;;;;;6317869;28;20218;-65
2023/10/29 05:00:34;;;;;;;3.27;2.97;;;;;;;;;;6300511;28;20219;-65
2023/10/29 05:03:35;;;;;;;7.33;3.13;;;;;;;;;;6308912;28;20288;-64
2023/10/29 05:06:36;;;;;;;3.33;2.87;;;;;;;;;;6289925;28;20197;-65
2023/10/29 05:09:37;;;;;;;3.23;2.80;;;;;;;;;;6296008;28;20262;-64
2023/10/29 05:12:38;;;;;;;3.43;2.87;;;;;;;;;;6317448;28;20206;-65
2023/10/29 05:15:40;;;;;;;3.03;2.80;;;;;;;;;;6302535;28;20195;-65
2023/10/29 05:18:41;;;;;;;4.00;3.43;;;;;;;;;;6290377;28;20258;-65
2023/10/29 05:21:42;;;;;;;4.57;3.47;;;;;;;;;;6298645;28;20215;-65
2023/10/29 05:24:43;;;;;;;3.43;3.13;;;;;;;;;;6300122;28;20209;-65
2023/10/29 05:27:51;;;;;;;5.57;3.47;;;;;;;;;;6298897;28;20200;-64
2023/10/29 05:30:53;;;;;;;4.20;3.40;;;;;;;;;;6309956;28;20271;-65
2023/10/29 05:33:54;;;;;;;3.90;3.60;;;;;;;;;;6295419;28;20196;-65
2023/10/29 05:36:55;;;;;;;4.57;3.87;;;;;;;;;;6304074;28;20208;-65
2023/10/29 05:39:56;;;;;;;5.30;3.97;;;;;;;;;;6320993;28;20184;-64
2023/10/29 05:42:57;;;;;;;5.77;3.73;;;;;;;;;;6303322;28;20237;-65
2023/10/29 05:45:58;;;;;;;7.13;4.20;;;;;;;;;;6294739;28;20211;-65
2023/10/29 05:48:59;;;;;;;4.47;4.03;;;;;;;;;;6287591;28;20193;-65
2023/10/29 05:52:00;;;;;;;6.17;4.00;;;;;;;;;;6296086;28;20192;-64
2023/10/29 05:55:04;;;;;;;6.83;3.70;;;;;;;;;;6297524;28;20209;-65
2023/10/29 05:58:05;;;;;;;4.97;3.90;;;;;;;;;;6304840;28;20296;-65
2023/10/29 06:01:07;;;;;;;6.73;4.67;;;;;;;;;;6295224;28;20280;-64
2023/10/29 06:04:08;;;;;;;5.40;4.60;;;;;;;;;;6318571;28;20184;-64
2023/10/29 06:07:09;;;;;;;5.43;4.20;;;;;;;;;;6304826;28;20190;-65
2023/10/29 06:10:12;;;;;;;9.17;4.70;;;;;;;;;;6305569;28;20204;-65
2023/10/29 06:13:13;;;;;;;7.50;4.80;;;;;;;;;;6315728;28;20225;-64
2023/10/29 06:16:14;;;;;;;5.60;4.93;;;;;;;;;;6296242;28;20246;-64
2023/10/29 06:19:15;;;;;;;5.10;4.27;;;;;;;;;;6296746;28;20208;-65
2023/10/29 06:22:16;;;;;;;6.57;5.00;;;;;;;;;;6318290;28;20180;-65
2023/10/29 06:25:17;;;;;;;6.37;4.40;;;;;;;;;;6289576;28;20266;-64
2023/10/29 06:28:18;;;;;;;6.50;4.83;;;;;;;;;;6298965;28;20246;-65
2023/10/29 06:31:19;;;;;;;7.50;5.30;;;;;;;;;;6305219;28;20196;-65
2023/10/29 06:34:22;;;;;;;9.20;5.00;;;;;;;;;;6292446;28;20250;-65
2023/10/29 06:37:23;;;;;;;6.60;4.87;;;;;;;;;;6316245;28;20296;-64
2023/10/29 06:40:25;;;;;;;5.33;4.57;;;;;;;;;;6298690;28;20229;-65
2023/10/29 06:43:27;;;;;;;6.43;4.70;;;;;;;;;;6296815;28;20193;-64
2023/10/29 06:46:28;;;;;;;5.10;4.60;;;;;;;;;;6296363;28;20247;-65
2023/10/29 06:49:29;;;;;;;6.70;4.73;;;;;;;;;;6290983;28;20207;-64
2023/10/29 06:52:30;;;;;;;9.27;4.90;;;;;;;;;;6305103;28;20325;-64
2023/10/29 06:55:31;;;;;;;5.87;4.97;;;;;;;;;;6297610;28;20207;-65
2023/10/29 06:58:32;;;;;;;5.53;4.87;;;;;;;;;;6320066;28;20219;-65
2023/10/29 07:01:34;;;;;;;6.23;5.23;;;;;;;;;;6321477;28;20257;-65
2023/10/29 07:04:35;;;;;;;6.10;4.67;;;;;;;;;;6316310;28;20201;-64
2023/10/29 07:07:36;;;;;;;7.07;5.50;;;;;;;;;;6287294;28;20203;-65
2023/10/29 07:10:37;;;;;;;6.17;5.57;;;;;;;;;;6297386;28;20200;-65
2023/10/29 07:13:38;;;;;;;9.10;6.53;;;;;;;;;;6305729;28;20200;-65
2023/10/29 07:16:45;;;;;;;8.60;6.63;;;;;;;;;;6286000;28;20188;-65
2023/10/29 07:19:47;;;;;;;7.07;6.27;;;24.00;50.00;;;;;;6322574;28;20189;-64
2023/10/29 07:22:47;;;;;;;7.97;6.60;;;7.50;99.60;;;;;;6267654;28;20201;-64
2023/10/29 07:25:49;;;;;;;8.07;6.30;;;7.60;99.90;;;;;;6296119;28;20192;-65
2023/10/29 07:28:50;;;;;;;9.83;7.43;;;7.60;99.90;;;;;;6310117;28;20193;-64
2023/10/29 07:31:50;;;;;;;7.60;6.77;;;7.60;99.90;;;;;;6281434;28;20214;-65
2023/10/29 07:34:51;;;;;;;10.13;7.23;;;7.60;99.90;;;;;;6278298;28;20264;-65
2023/10/29 07:37:52;;;;;;;8.83;6.60;;;7.60;99.90;;;;;;6288259;28;20219;-65
2023/10/29 07:40:52;;;;;;;9.97;6.73;;;7.60;99.90;;;;;;6274063;28;20197;-64
2023/10/29 07:43:53;;;;;;;10.37;7.40;;;7.60;99.90;;;;;;6293622;28;20189;-65
2023/10/29 07:46:54;;;;;;;9.47;7.93;;;7.60;99.90;;;;;;6302794;28;20227;-65
2023/10/29 07:49:55;;;;;;;9.63;6.70;;;7.70;99.90;;;;;;6278061;28;20193;-65
2023/10/29 07:52:56;;;;;;;7.87;6.60;;;7.70;99.90;;;;;;6290549;28;20191;-65
2023/10/29 07:56:10;;;;;;;9.63;6.87;;;7.70;99.90;;;;;;6278529;28;20276;-65
2023/10/29 07:59:11;;;;;;;9.00;6.63;;;7.80;99.90;;;;;;6320391;28;20257;-64
2023/10/29 08:02:11;;;;;;;9.13;7.07;;;7.80;99.90;;;;;;6306119;28;20192;-65
2023/10/29 08:05:14;;;;;;;8.30;6.90;;;7.80;99.90;;;;;;6299133;28;20188;-65
2023/10/29 08:08:15;;;;;;;9.03;7.40;;;7.80;99.90;;;;;;6292954;28;20189;-64
2023/10/29 08:11:22;;;;;;;9.93;7.00;;;7.90;99.90;;;;;;6272323;28;20203;-65
2023/10/29 08:14:23;;;;;;;6.97;6.23;;;8.00;99.90;;;;;;6275951;28;20189;-65
2023/10/29 08:17:24;;;;;;;7.10;6.30;;;;;;;;;;6284502;28;20214;-65
2023/10/29 08:20:24;;;;;;;9.43;6.53;;;24.00;50.00;;;;;;6316043;28;20184;-65
2023/10/29 08:23:25;;;;;;;7.03;6.30;;;8.20;99.90;;;;;;6270584;28;20224;-65
2023/10/29 08:26:28;;;;;;;7.60;6.77;;;8.30;99.90;;;;;;6282087;28;20179;-65
2023/10/29 08:29:29;;;;;;;8.23;6.30;;;8.30;99.90;;;;;;6282665;28;20189;-65
2023/10/29 08:32:32;;;;;;;10.70;6.27;;;8.30;99.90;;;;;;6285348;28;20213;-65
2023/10/29 08:35:34;;;;;;;7.53;6.47;;;;;;;;;;6298024;28;20239;-64
2023/10/29 08:38:35;;;;;;;7.47;6.20;;;7.00;99.90;;;;;;6296322;28;20209;-64
2023/10/29 08:41:36;;;;;;;9.37;7.03;;;4.90;99.90;;;;;;6281459;28;20180;-65
2023/10/29 08:44:37;;;;;;;7.93;6.30;;;-10.60;99.90;;;;;;6302715;28;20187;-65
2023/10/29 08:47:38;;;;;;;7.10;6.17;;;-20.10;99.90;;;;;;6303876;28;20198;-65
2023/10/29 08:50:40;;;;;;;8.30;5.77;;;-1.70;99.90;;;;;;6299725;28;20358;-65
2023/10/29 08:53:40;;;;;;;6.87;5.77;;;-21.30;99.90;;;;;;6318136;28;20185;-65
2023/10/29 08:56:41;;;;;;;7.80;6.07;;;-12.30;99.90;;;;;;6302289;28;20196;-64
2023/10/29 08:59:42;;;;;;;8.53;6.00;;;-10.20;99.90;;;;;;6282672;28;20301;-65
2023/10/29 09:02:43;;;;;;;7.80;5.83;;;9.20;99.80;;;;;;6303847;28;20184;-65
2023/10/29 09:05:46;;;;;;;7.50;6.67;;;9.20;99.70;;;;;;6308242;28;20179;-65
2023/10/29 09:08:47;;;;;;;9.83;6.27;;;9.30;99.50;;;;;;6301384;28;20197;-65
2023/10/29 09:11:53;;;;;;;6.90;5.30;;;-2.50;99.90;;;;;;6283444;28;20284;-65
2023/10/29 09:14:54;;;;;;;6.10;5.50;;;0.20;99.60;;;;;;6324476;28;20203;-65
2023/10/29 09:17:54;;;;;;;6.50;5.30;;;5.30;99.20;;;;;;6283404;28;20212;-65
2023/10/29 09:20:55;;;;;;;6.83;5.13;;;6.60;98.70;;;;;;6283044;28;20284;-65
2023/10/29 09:23:56;;;;;;;5.97;5.00;;;8.10;97.80;;;;;;6282648;28;20186;-65
2023/10/29 09:26:56;;;;;;;7.67;5.73;;;-13.80;99.60;;;;;;6284401;28;20212;-65
2023/10/29 09:29:57;;;;;;;5.97;5.20;;;-6.00;98.00;;;;;;6284288;28;20197;-65
2023/10/29 09:32:58;;;;;;;6.23;5.23;;;-8.30;98.00;;;;;;6284236;28;20188;-65
2023/10/29 09:36:00;;;;;;;6.83;5.27;;;-4.60;97.20;;;;;;6285203;28;20232;-65
2023/10/29 09:39:00;;;;;;;7.87;5.03;;;-1.70;96.00;;;;;;6302949;28;20204;-65
2023/10/29 09:42:08;;;;;;;5.57;4.40;;;-3.00;96.00;;;;;;6270650;28;20215;-65
2023/10/29 09:45:10;;;;;;;5.60;5.10;;;-9.10;96.00;;;;;;6316090;28;20188;-65
2023/10/29 09:48:11;;;;;;;5.57;5.07;;;;;;;;;;6301901;28;20196;-65
2023/10/29 09:51:12;;;;;;;6.00;4.40;;;;;;;;;;6297752;28;20248;-65
2023/10/29 09:54:14;;;;;;;5.17;4.57;;;-17.70;97.10;;;;;;6299850;28;20194;-65
2023/10/29 09:57:15;;;;;;;5.20;4.70;;;-24.90;97.20;;;;;;6306189;28;20218;-65
2023/10/29 10:00:17;;;;;;;4.87;4.13;;;11.10;94.00;;;;;;6281783;28;20200;-65
2023/10/29 10:03:18;;;;;;;5.80;4.60;;;-14.50;95.10;;;;;;6311766;28;20238;-65
2023/10/29 10:06:20;;;;;;;4.10;2.80;;;11.30;93.90;;;;;;6287020;28;20181;-65
2023/10/29 10:09:21;;;;;;;3.53;2.77;;;24.00;50.00;;;;;;6282423;28;20184;-65
2023/10/29 10:12:24;;;;;;;5.50;2.73;;;;;;;;;;6302589;28;20184;-65
2023/10/29 10:15:25;;;;;;;4.53;2.30;;;;;;;;;;6318662;28;20405;-65
2023/10/29 10:18:26;;;;;;;4.13;3.73;;;;;;;;;;6300412;28;20208;-65
2023/10/29 10:21:44;;;;;;;3.93;3.13;;;;;;;;;;6301034;28;20195;-65
2023/10/29 10:24:45;;;;;;;3.43;3.00;;;;;;;;;;6318942;28;20235;-65
2023/10/29 10:27:51;;;;;;;4.07;2.97;;;;;;;;;;6320329;28;20402;-65
2023/10/29 10:30:52;;;;;;;3.93;2.70;;;;;;;;;;6302257;28;20193;-65
2023/10/29 10:34:09;;;;;;;3.30;2.70;;;;;;;;;;6296353;28;20208;-65
2023/10/29 10:37:10;;;;;;;5.37;2.87;;;;;;;;;;6311563;28;20288;-65
2023/10/29 10:40:26;;;;;;;3.17;2.33;;;;;;;;;;6317644;28;20189;-65
2023/10/29 10:43:28;;;;;;;2.70;1.97;;;;;;;;;;6315122;28;20186;-65
2023/10/29 10:46:30;;;;;;;4.60;2.03;;;;;;;;;;6300892;28;20258;-65
2023/10/29 10:49:33;;;;;;;2.30;1.70;;;;;;;;;;6320012;28;20188;-65
2023/10/29 10:52:34;;;;;;;2.90;1.87;;;;;;;;;;6299865;28;20260;-65
2023/10/29 10:55:37;;;;;;;3.83;1.37;;;;;;;;;;6295346;28;20185;-65
2023/10/29 10:58:39;;;;;;;4.43;1.70;;;;;;;;;;6292631;28;20253;-66
2023/10/29 11:01:40;;;;;;;1.83;1.40;;;;;;;;;;6288762;28;20194;-65
2023/10/29 11:04:42;;;;;;;4.03;1.30;;;;;;;;;;6314423;28;20169;-65
2023/10/29 11:07:43;;;;;;;2.67;1.67;;;;;;;;;;6304079;28;20189;-65
2023/10/29 11:10:46;;;;;;;2.60;1.30;;;;;;;;;;6310724;28;20215;-65
2023/10/29 11:13:48;;;;;;;2.03;1.10;;;;;;;;;;6311633;28;20276;-65
2023/10/29 11:16:55;;;;;;;3.40;1.40;;;;;;;;;;6333815;28;20237;-65
2023/10/29 11:19:58;;;;;;;3.93;1.40;;;;;;;;;;6310836;28;20180;-65
2023/10/29 11:23:06;;;;;;;2.17;1.57;;;;;;;;;;6299283;28;20189;-65
2023/10/29 11:26:24;;;;;;;1.77;1.37;;;;;;;;;;6301229;28;20254;-65
2023/10/29 11:29:44;;;;;;;2.20;1.40;;;;;;;;;;6311046;28;20182;-65
2023/10/29 11:32:46;;;;;;;2.93;1.17;;;;;;;;;;6313511;28;20190;-65
2023/10/29 11:35:47;;;;;;;1.00;0.90;;;;;;;;;;6312615;28;20240;-65
2023/10/29 11:38:48;;;;;;;1.77;1.10;;;;;;;;;;6283791;28;20213;-65
2023/10/29 11:41:52;;;;;;;2.37;1.00;;;;;;;;;;6302426;28;20211;-66
2023/10/29 11:45:13;;;;;;;2.00;1.00;;;;;;;;;;6297917;28;20188;-65
2023/10/29 11:48:14;;;;;;;2.77;1.10;;;;;;;;;;6305004;28;20281;-65
2023/10/29 11:51:15;;;;;;;2.17;1.10;;;;;;;;;;6311595;28;20197;-65
2023/10/29 11:54:16;;;;;;;1.40;1.13;;;;;;;;;;6302162;28;20197;-65
2023/10/29 11:57:21;;;;;;;2.07;1.17;;;;;;;;;;6297123;28;20208;-65
2023/10/29 12:00:23;;;;;;;2.50;1.17;;;;;;;;;;6320196;28;20263;-65
2023/10/29 12:03:24;;;;;;;1.67;1.03;;;;;;;;;;6313133;28;20189;-65
2023/10/29 12:06:44;;;;;;;2.90;1.37;;;;;;;;;;6294301;28;20238;-65
2023/10/29 12:09:45;;;;;;;1.87;0.87;;;;;;;;;;6303556;28;20185;-64
2023/10/29 12:12:52;;;;;;;1.60;1.07;;;;;;;;;;6308811;28;20188;-65
2023/10/29 12:16:03;;;;;;;1.33;0.90;;;;;;;;;;6320127;28;20242;-65
2023/10/29 12:19:04;;;;;;;2.13;1.23;;;;;;;;;;6310923;28;20209;-65
2023/10/29 12:22:16;;;;;;;1.80;1.07;;;;;;;;;;6300985;28;20177;-65
2023/10/29 12:25:18;;;;;;;1.47;1.17;;;;;;;;;;6304869;28;20189;-65
2023/10/29 12:28:19;;;;;;;1.67;1.03;;;;;;;;;;6304828;28;20194;-65
2023/10/29 12:31:24;;;;;;;2.17;0.80;;;;;;;;;;6306726;28;20195;-65
2023/10/29 12:34:27;;;;;;;2.40;1.30;;;;;;;;;;6323048;28;20232;-65
2023/10/29 12:37:29;;;;;;;1.30;1.10;;;;;;;;;;6313169;28;20236;-65
2023/10/29 12:40:30;;;;;;;1.30;1.20;;;;;;;;;;6325468;28;20275;-65
2023/10/29 12:43:37;;;;;;;1.97;0.93;;;;;;;;;;6299500;28;20285;-65
2023/10/29 12:46:48;;;;;;;1.70;1.07;;;;;;;;;;6311292;28;20269;-64
2023/10/29 12:49:59;;;;;;;1.73;0.80;;;;;;;;;;6310896;28;20185;-65
2023/10/29 12:53:00;;;;;;;2.57;1.00;;;;;;;;;;6289984;28;20343;-65
2023/10/29 12:56:02;;;;;;;1.93;1.00;;;;;;;;;;6301310;28;20199;-65
2023/10/29 12:59:03;;;;;;;1.47;0.73;;;;;;;;;;6288583;28;20209;-65
2023/10/29 13:02:05;;;;;;;1.10;0.87;;;;;;;;;;6292329;28;20181;-65
2023/10/29 13:05:06;;;;;;;1.80;0.90;;;;;;;;;;6294809;28;20196;-65
2023/10/29 13:08:11;;;;;;;0.97;0.77;;;;;;;;;;6303409;28;20201;-65
2023/10/29 13:11:12;;;;;;;1.77;0.90;;;;;;;;;;6295265;28;20192;-65
2023/10/29 13:14:13;;;;;;;1.13;0.73;;;;;;;;;;6305198;28;20195;-65
2023/10/29 13:17:14;;;;;;;1.43;1.07;;;;;;;;;;6296130;28;20282;-65
2023/10/29 13:20:15;;;;;;;2.10;1.00;;;;;;;;;;6302147;28;20245;-65
2023/10/29 13:23:16;;;;;;;1.53;0.97;;;;;;;;;;6313732;28;20241;-65
2023/10/29 13:26:17;;;;;;;1.10;0.80;;;;;;;;;;6302283;28;20215;-65
2023/10/29 13:29:20;;;;;;;2.17;1.00;;;;;;;;;;6305604;28;20189;-65
2023/10/29 13:32:21;;;;;;;1.70;1.17;;;;;;;;;;6299075;28;20198;-65
2023/10/29 13:35:22;;;;;;;2.93;1.13;;;;;;;;;;6319905;28;20232;-65
2023/10/29 13:38:24;;;;;;;2.77;1.00;;;;;;;;;;6284206;28;20217;-65
2023/10/29 13:41:25;;;;;;;3.70;1.20;;;;;;;;;;6302415;28;20192;-65
2023/10/29 13:44:27;;;;;;;2.40;1.20;;;;;;;;;;6285413;28;20196;-65
2023/10/29 13:47:28;;;;;;;2.27;1.10;;;;;;;;;;6300922;28;20215;-64
2023/10/29 13:50:29;;;;;;;3.10;1.40;;;;;;;;;;6294152;28;20185;-65
2023/10/29 13:53:30;;;;;;;3.93;1.37;;;;;;;;;;6314732;28;20193;-65
2023/10/29 13:56:32;;;;;;;2.07;1.23;;;;;;;;;;6314593;28;20269;-65
2023/10/29 13:59:33;;;;;;;1.93;1.20;;;;;;;;;;6291012;28;20378;-65
2023/10/29 14:02:35;;;;;;;1.30;1.00;;;;;;;;;;6308055;28;20192;-64
2023/10/29 14:05:36;;;;;;;1.20;1.10;;;;;;;;;;6304443;28;20196;-65
2023/10/29 14:08:40;;;;;;;2.97;1.20;;;;;;;;;;6296374;28;20197;-65
2023/10/29 14:11:41;;;;;;;1.70;1.27;;;;;;;;;;6314421;28;20186;-65
2023/10/29 14:14:43;;;;;;;1.53;1.20;;;;;;;;;;6299167;28;20189;-65
2023/10/29 14:17:44;;;;;;;3.43;1.30;;;;;;;;;;6301235;28;20224;-64
2023/10/29 14:20:45;;;;;;;3.63;1.40;;;;;;;;;;6288145;28;20184;-65
2023/10/29 14:23:47;;;;;;;1.60;1.00;;;;;;;;;;6297462;28;20189;-66
2023/10/29 14:26:48;;;;;;;2.63;1.20;;;;;;;;;;6300768;28;20188;-65
2023/10/29 14:29:49;;;;;;;2.50;1.00;;;;;;;;;;6304247;28;20189;-65
2023/10/29 14:32:51;;;;;;;3.80;1.50;;;;;;;;;;6318484;28;20185;-65
2023/10/29 14:35:55;;;;;;;2.40;1.27;;;;;;;;;;6290587;28;20359;-65
2023/10/29 14:38:57;;;;;;;3.37;1.67;;;;;;;;;;6311715;28;20224;-65
2023/10/29 14:41:58;;;;;;;2.37;1.20;;;;;;;;;;6320151;28;20188;-65
2023/10/29 14:44:59;;;;;;;1.20;1.10;;;;;;;;;;6314192;28;20185;-65
2023/10/29 14:48:01;;;;;;;2.80;1.40;;;;;;;;;;6294300;28;20189;-65
2023/10/29 14:51:05;;;;;;;2.70;1.27;;;;;;;;;;6314264;28;20192;-65
2023/10/29 14:54:07;;;;;;;1.47;1.10;;;;;;;;;;6292401;28;20204;-65
2023/10/29 14:57:08;;;;;;;1.70;1.00;;;;;;;;;;6310928;28;20184;-65
2023/10/29 15:00:10;;;;;;;3.20;1.30;;;;;;;;;;6305830;28;20203;-65
2023/10/29 15:03:12;;;;;;;4.23;1.50;;;;;;;;;;6305052;28;20247;-64
2023/10/29 15:06:13;;;;;;;1.30;1.00;;;;;;;;;;6301226;28;20185;-65
2023/10/29 15:09:14;;;;;;;1.53;1.10;;;;;;;;;;6285036;28;20202;-65
2023/10/29 15:12:15;;;;;;;2.20;1.10;;;;;;;;;;6317592;28;20280;-65
2023/10/29 15:15:17;;;;;;;1.83;1.20;;;;;;;;;;6296465;28;20366;-65
2023/10/29 15:18:18;;;;;;;1.97;1.13;;;;;;;;;;6296388;28;20262;-65
2023/10/29 15:21:19;;;;;;;2.40;1.33;;;;;;;;;;6304584;28;20196;-65
2023/10/29 15:24:20;;;;;;;3.63;1.37;;;;;;;;;;6294140;28;20189;-65
2023/10/29 15:27:24;;;;;;;2.07;1.60;;;;;;;;;;6303629;28;20193;-64
2023/10/29 15:30:25;;;;;;;3.53;1.40;;;;;;;;;;6295616;28;20203;-65
2023/10/29 15:33:26;;;;;;;2.20;1.73;;;;;;;;;;6296776;28;20286;-65
2023/10/29 15:36:28;;;;;;;3.37;1.50;;;24.00;50.00;;;;;;6299432;28;20248;-65
2023/10/29 15:39:32;;;;;;;2.87;1.53;;;14.20;81.20;;;;;;6285431;28;20211;-65
2023/10/29 15:42:33;;;;;;;1.97;1.40;;;;;;;;;;6270115;28;20193;-65
2023/10/29 15:45:36;;;;;;;2.30;1.70;;;;;;;;;;6301434;28;20189;-65
2023/10/29 15:48:37;;;;;;;1.50;1.23;;;;;;;;;;6318053;28;20193;-65
2023/10/29 15:51:38;;;;;;;2.00;1.47;;;24.00;50.00;;;;;;6291630;28;20200;-65
2023/10/29 15:54:40;;;;;;;4.87;1.80;;;;;;;;;;6278211;28;20196;-65
2023/10/29 15:57:41;;;;;;;3.37;2.17;;;24.00;50.00;;;;;;6283506;28;20213;-65
2023/10/29 16:00:42;;;;;;;2.80;2.40;;;13.40;84.00;;;;;;6284778;28;20274;-65
2023/10/29 16:03:45;;;;;;;3.00;2.20;;;13.30;84.40;;;;;;6279239;28;20276;-64
2023/10/29 16:06:45;;;;;;;2.77;2.47;;;13.20;85.00;;;;;;6303210;28;20185;-65
2023/10/29 16:09:48;;;;;;;4.60;2.77;;;;;;;;;;6303446;28;20250;-65
2023/10/29 16:12:49;;;;;;;2.63;1.80;;;24.00;50.00;;;;;;6319902;28;20196;-65
2023/10/29 16:15:50;;;;;;;4.47;1.93;;;13.00;85.70;;;;;;6286846;28;20204;-65
2023/10/29 16:18:52;;;;;;;3.60;2.10;;;;;;;;;;6295054;28;20209;-65
2023/10/29 16:21:54;;;;;;;2.87;1.93;;;;;;;;;;6295408;28;20209;-65
2023/10/29 16:24:55;;;;;;;3.27;2.40;;;;;;;;;;6291727;28;20192;-65
2023/10/29 16:27:56;;;;;;;5.97;2.90;;;;;;;;;;6298950;28;20193;-65
2023/10/29 16:30:58;;;;;;;3.73;2.60;;;;;;;;;;6285717;28;20206;-65
2023/10/29 16:34:00;;;;;;;4.63;2.87;;;;;;;;;;6301622;28;20225;-64
2023/10/29 16:37:01;;;;;;;5.37;3.97;;;;;;;;;;6291590;28;20204;-65
2023/10/29 16:40:04;;;;;;;6.13;3.83;;;;;;;;;;6292826;28;20215;-65
2023/10/29 16:43:05;;;;;;;4.53;3.97;;;;;;;;;;6299742;28;20185;-65
2023/10/29 16:46:10;;;;;;;6.07;4.03;;;;;;;;;;6303085;28;20177;-65
2023/10/29 16:49:11;;;;;;;4.13;2.83;;;;;;;;;;6310498;28;20189;-65
2023/10/29 16:52:14;;;;;;;4.17;2.50;;;;;;;;;;6296070;28;20197;-64
2023/10/29 16:55:16;;;;;;;4.57;2.70;;;;;;;;;;6297458;28;20182;-65
2023/10/29 16:58:17;;;;;;;3.77;2.43;;;;;;;;;;6295095;28;20274;-64
2023/10/29 17:01:18;;;;;;;5.37;2.13;;;;;;;;;;6292037;28;20192;-65
2023/10/29 17:04:20;;;;;;;4.97;2.87;;;;;;;;;;6293569;28;20190;-63
2023/10/29 17:07:22;;;;;;;5.73;2.87;;;;;;;;;;6297629;28;20189;-61
2023/10/29 17:10:24;;;;;;;7.23;5.27;;;;;;;;;;6295822;28;20193;-61
2023/10/29 17:13:26;;;;;;;8.70;7.80;;;;;;;;;;6301486;28;20193;-61
2023/10/29 17:16:28;;;;;;;11.27;8.33;;;;;;;;;;6315077;28;20287;-62
2023/10/29 17:19:29;;;;;;;8.17;6.67;;;;;;;;;;6302408;28;20289;-61
2023/10/29 17:22:31;;;;;;;7.30;5.60;;;;;;;;;;6301698;28;20239;-62
2023/10/29 17:25:36;;;;;;;5.80;2.87;;;;;;;;;;6322962;28;20227;-62
2023/10/29 17:28:37;;;;;;;2.83;2.50;;;;;;;;;;6298427;28;20233;-62
2023/10/29 17:31:38;;;;;;;2.83;2.30;;;;;;;;;;6300982;28;20250;-62
2023/10/29 17:34:40;;;;;;;4.53;2.27;;;;;;;;;;6293679;28;20244;-62
2023/10/29 17:37:41;;;;;;;4.23;2.40;;;;;;;;;;6306636;28;20217;-62
2023/10/29 17:40:43;;;;;;;3.43;2.40;;;;;;;;;;6297540;28;20220;-62
2023/10/29 17:43:45;;;;;;;3.37;2.70;;;;;;;;;;6293546;28;20200;-62